createdAt,value
2019-04-19T00:00:56.989Z,102630.78
2019-04-19T00:03:27.352Z,102633.78
2019-04-19T00:05:54.144Z,102630.52
2019-04-19T00:08:37.236Z,102633.24
2019-04-19T00:11:06.508Z,102637.90
2019-04-19T00:13:23.801Z,102630.81
2019-04-19T00:15:52.272Z,102634.66
2019-04-19T00:18:21.753Z,102633.02
2019-04-19T00:21:10.743Z,102633.54
2019-04-19T00:23:31.053Z,102631.38
2019-04-19T00:25:51.601Z,102634.91
2019-04-19T00:28:31.372Z,102634.67
2019-04-19T00:30:58.109Z,102637.92
2019-04-19T00:33:29.363Z,102634.12
2019-04-19T00:35:51.712Z,102639.04
2019-04-19T00:38:36.935Z,102640.63
2019-04-19T00:41:09.589Z,102633.81
2019-04-19T00:43:53.573Z,102641.19
2019-04-19T00:46:29.301Z,102638.48
2019-04-19T00:48:55.148Z,102638.48
2019-04-19T00:51:23.987Z,102633.61
2019-04-19T00:53:55.689Z,102642.05
2019-04-19T00:56:16.826Z,102642.33
2019-04-19T00:58:50.278Z,102640.97
2019-04-19T01:01:19.468Z,102638.53
2019-04-19T01:03:47.101Z,102637.17
2019-04-19T01:06:16.818Z,102632.30
2019-04-19T01:08:56.631Z,102632.82
2019-04-19T01:11:28.553Z,102636.10
2019-04-19T01:13:58.934Z,102634.46
2019-04-19T01:16:24.098Z,102636.66
2019-04-19T01:18:55.147Z,102639.66
2019-04-19T01:21:15.384Z,102641.54
2019-04-19T01:23:48.184Z,102637.45
2019-04-19T01:26:16.432Z,102639.09
2019-04-19T01:28:51.216Z,102638.02
2019-04-19T01:31:19.092Z,102641.02
2019-04-19T01:33:45.927Z,102648.61
2019-04-19T01:36:14.637Z,102648.61
2019-04-19T01:38:47.916Z,102650.23
2019-04-19T01:41:29.616Z,102649.16
2019-04-19T01:43:59.639Z,102644.55
2019-04-19T01:46:34.093Z,102643.98
2019-04-19T01:49:05.656Z,102641.55
2019-04-19T01:51:43.845Z,102645.34
2019-04-19T01:54:29.638Z,102639.91
2019-04-19T01:56:48.310Z,102639.09
2019-04-19T01:59:13.611Z,102645.09
2019-04-19T02:01:42.030Z,102648.05
2019-04-19T02:04:15.575Z,102646.72
2019-04-19T02:06:44.559Z,102645.60
2019-04-19T02:09:25.417Z,102646.14
2019-04-19T02:11:53.502Z,102646.97
2019-04-19T02:14:20.590Z,102639.06
2019-04-19T02:16:51.741Z,102644.50
2019-04-19T02:19:21.042Z,102647.76
2019-04-19T02:21:48.885Z,102644.23
2019-04-19T02:24:17.033Z,102646.94
2019-04-19T02:26:53.280Z,102645.85
2019-04-19T02:29:20.250Z,102647.73
2019-04-19T02:32:15.631Z,102650.19
2019-04-19T02:34:39.521Z,102648.27
2019-04-19T02:37:16.150Z,102656.96
2019-04-19T02:39:45.275Z,102655.05
2019-04-19T02:44:58.030Z,102652.59
2019-04-19T02:47:39.262Z,102654.18
2019-04-19T02:52:33.504Z,102657.97
2019-04-19T02:57:32.807Z,102663.14
2019-04-19T03:00:13.748Z,102663.40
2019-04-19T03:02:50.319Z,102660.41
2019-04-19T03:07:17.481Z,102665.00
2019-04-19T03:09:47.303Z,102668.76
2019-04-19T03:12:38.484Z,102661.68
2019-04-19T03:15:02.005Z,102660.87
2019-04-19T03:17:35.161Z,102662.50
2019-04-19T03:20:01.668Z,102660.84
2019-04-19T03:22:28.378Z,102658.39
2019-04-19T03:25:08.251Z,102663.00
2019-04-19T03:27:24.243Z,102657.01
2019-04-19T03:29:49.196Z,102662.41
2019-04-19T03:32:57.441Z,102657.25
2019-04-19T03:35:05.109Z,102662.38
2019-04-19T03:37:38.315Z,102660.20
2019-04-19T03:40:12.824Z,102663.45
2019-04-19T03:42:47.460Z,102664.23
2019-04-19T03:45:12.832Z,102664.80
2019-04-19T03:47:48.898Z,102666.16
2019-04-19T03:50:15.483Z,102672.38
2019-04-19T03:52:42.669Z,102672.91
2019-04-19T03:55:13.159Z,102668.54
2019-04-19T03:57:37.393Z,102673.95
2019-04-19T03:59:56.370Z,102672.30
2019-04-19T04:02:31.758Z,102681.20
2019-04-19T04:04:59.533Z,102678.47
2019-04-19T04:07:28.669Z,102680.38
2019-04-19T04:09:59.252Z,102679.00
2019-04-19T04:12:39.555Z,102681.70
2019-04-19T04:15:11.994Z,102686.55
2019-04-19T04:17:31.136Z,102683.56
2019-04-19T04:20:00.868Z,102686.51
2019-04-19T04:22:33.501Z,102690.59
2019-04-19T04:25:09.802Z,102682.45
2019-04-19T04:27:43.721Z,102686.19
2019-04-19T04:30:10.143Z,102687.50
2019-04-19T04:32:43.519Z,102701.59
2019-04-19T04:35:13.602Z,102694.81
2019-04-19T04:37:46.950Z,102698.30
2019-04-19T04:40:02.165Z,102696.12
2019-04-19T04:42:37.661Z,102693.67
2019-04-19T04:45:23.437Z,102701.80
2019-04-19T04:47:47.763Z,102701.49
2019-04-19T04:50:35.506Z,102694.95
2019-04-19T04:52:40.349Z,102704.41
2019-04-19T04:55:11.833Z,102703.30
2019-04-19T04:57:48.403Z,102703.02
2019-04-19T05:00:10.263Z,102700.27
2019-04-19T05:02:58.746Z,102715.18
2019-04-19T05:05:29.700Z,102707.86
2019-04-19T05:08:04.356Z,102706.78
2019-04-19T05:10:30.711Z,102710.85
2019-04-19T05:15:34.842Z,102710.07
2019-04-19T05:18:21.375Z,102707.36
2019-04-19T05:20:29.082Z,102715.23
2019-04-19T05:23:02.744Z,102707.91
2019-04-19T05:25:35.754Z,102705.20
2019-04-19T05:28:01.251Z,102711.50
2019-04-19T05:30:15.321Z,102716.92
2019-04-19T05:32:55.891Z,102712.88
2019-04-19T05:35:27.334Z,102709.98
2019-04-19T05:38:03.056Z,102717.63
2019-04-19T05:40:32.658Z,102714.68
2019-04-19T05:43:33.286Z,102722.02
2019-04-19T05:46:10.646Z,102724.77
2019-04-19T05:48:08.202Z,102724.03
2019-04-19T05:50:56.730Z,102715.13
2019-04-19T05:53:14.224Z,102715.97
2019-04-19T05:55:30.429Z,102724.20
2019-04-19T05:58:11.435Z,102713.11
2019-04-19T06:00:47.258Z,102721.04
2019-04-19T06:03:14.168Z,102718.64
2019-04-19T06:06:05.133Z,102728.77
2019-04-19T06:08:14.044Z,102729.36
2019-04-19T06:10:40.887Z,102735.68
2019-04-19T06:13:08.511Z,102730.81
2019-04-19T06:15:56.957Z,102734.39
2019-04-19T06:18:21.772Z,102730.09
2019-04-19T06:21:04.209Z,102724.97
2019-04-19T06:23:29.648Z,102734.75
2019-04-19T06:26:21.460Z,102733.70
2019-04-19T06:28:28.644Z,102735.88
2019-04-19T06:30:55.053Z,102730.98
2019-04-19T06:33:26.625Z,102734.52
2019-04-19T06:35:49.650Z,102735.34
2019-04-19T06:38:09.997Z,102732.63
2019-04-19T06:40:45.280Z,102741.89
2019-04-19T06:43:14.207Z,102741.61
2019-04-19T06:45:55.582Z,102742.68
2019-04-19T06:48:14.398Z,102750.84
2019-04-19T06:50:43.146Z,102748.61
2019-04-19T06:53:10.163Z,102746.94
2019-04-19T06:55:44.980Z,102755.33
2019-04-19T06:58:15.605Z,102751.71
2019-04-19T07:00:54.946Z,102755.77
2019-04-19T07:03:10.936Z,102757.89
2019-04-19T07:05:49.329Z,102764.92
2019-04-19T07:08:52.862Z,102762.72
2019-04-19T07:11:00.537Z,102754.22
2019-04-19T07:13:26.204Z,102765.56
2019-04-19T07:16:19.544Z,102764.67
2019-04-19T07:18:24.991Z,102765.40
2019-04-19T07:21:00.320Z,102767.47
2019-04-19T07:23:34.255Z,102766.31
2019-04-19T07:26:04.227Z,102771.39
2019-04-19T07:28:17.337Z,102768.52
2019-04-19T07:30:48.204Z,102769.49
2019-04-19T07:33:15.570Z,102771.63
2019-04-19T07:36:00.586Z,102769.00
2019-04-19T07:38:35.917Z,102769.31
2019-04-19T07:41:05.892Z,102766.70
2019-04-19T07:43:28.676Z,102771.70
2019-04-19T07:46:09.419Z,102775.61
2019-04-19T07:48:23.065Z,102778.41
2019-04-19T07:50:58.612Z,102775.54
2019-04-19T07:53:29.576Z,102776.30
2019-04-19T07:56:00.459Z,102774.76
2019-04-19T07:58:43.554Z,102776.84
2019-04-19T08:01:16.183Z,102779.36
2019-04-19T08:04:00.964Z,102779.55
2019-04-19T08:06:18.850Z,102781.69
2019-04-19T08:09:02.571Z,102784.97
2019-04-19T08:11:26.016Z,102790.48
2019-04-19T08:16:16.416Z,102792.55
2019-04-19T08:28:35.025Z,102796.77
2019-04-19T08:30:57.937Z,102799.16
2019-04-19T08:33:23.972Z,102798.12
2019-04-19T08:35:55.869Z,102793.40
2019-04-19T08:38:25.712Z,102798.56
2019-04-19T08:41:05.933Z,102793.75
2019-04-19T08:43:42.396Z,102802.23
2019-04-19T08:46:00.778Z,102795.27
2019-04-19T08:48:45.533Z,102798.23
2019-04-19T08:51:12.131Z,102799.25
2019-04-19T08:53:54.293Z,102800.52
2019-04-19T08:56:24.251Z,102792.25
2019-04-19T08:58:58.238Z,102796.92
2019-04-19T09:01:36.900Z,102793.56
2019-04-19T09:04:07.124Z,102794.39
2019-04-19T09:07:15.892Z,102793.66
2019-04-19T09:08:58.141Z,102789.38
2019-04-19T09:11:30.938Z,102793.45
2019-04-19T09:14:04.839Z,102790.53
2019-04-19T09:16:29.900Z,102788.51
2019-04-19T09:19:07.261Z,102795.16
2019-04-19T09:21:27.400Z,102792.50
2019-04-19T09:23:52.912Z,102796.27
2019-04-19T09:26:30.385Z,102791.45
2019-04-19T09:29:09.905Z,102793.83
2019-04-19T09:31:29.852Z,102803.52
2019-04-19T09:33:47.388Z,102794.35
2019-04-19T09:36:18.703Z,102796.77
2019-04-19T09:39:00.783Z,102791.66
2019-04-19T09:41:24.636Z,102794.73
2019-04-19T09:43:58.645Z,102790.27
2019-04-19T09:46:16.777Z,102791.98
2019-04-19T09:49:02.392Z,102796.13
2019-04-19T09:51:33.895Z,102791.16
2019-04-19T09:54:10.776Z,102786.17
2019-04-19T09:56:34.229Z,102795.92
2019-04-19T09:58:57.552Z,102791.47
2019-04-19T10:01:22.751Z,102787.63
2019-04-19T10:03:52.653Z,102784.22
2019-04-19T10:06:17.503Z,102783.48
2019-04-19T10:08:45.832Z,102779.17
2019-04-19T10:11:14.821Z,102776.08
2019-04-19T10:13:43.999Z,102784.14
2019-04-19T10:16:24.187Z,102779.34
2019-04-19T10:18:59.304Z,102777.48
2019-04-19T10:21:33.361Z,102769.75
2019-04-19T10:24:00.983Z,102775.43
2019-04-19T10:26:38.421Z,102775.65
2019-04-19T10:29:16.700Z,102771.22
2019-04-19T10:31:45.319Z,102765.08
2019-04-19T10:34:14.402Z,102762.87
2019-04-19T10:36:42.867Z,102761.25
2019-04-19T10:39:13.870Z,102759.31
2019-04-19T10:41:43.810Z,102765.45
2019-04-19T10:44:16.949Z,102768.34
2019-04-19T10:46:43.375Z,102762.48
2019-04-19T10:49:17.438Z,102763.63
2019-04-19T10:51:47.043Z,102766.77
2019-04-19T10:54:15.334Z,102754.97
2019-04-19T10:56:48.547Z,102763.36
2019-04-19T10:59:16.928Z,102752.67
2019-04-19T11:01:45.461Z,102752.48
2019-04-19T11:04:15.028Z,102753.56
2019-04-19T11:06:45.251Z,102749.06
2019-04-19T11:09:14.382Z,102745.84
2019-04-19T11:11:43.556Z,102747.63
2019-04-19T11:14:12.237Z,102751.56
2019-04-19T11:16:41.868Z,102740.14
2019-04-19T11:19:17.416Z,102750.98
2019-04-19T11:21:41.325Z,102751.41
2019-04-19T11:24:09.741Z,102740.29
2019-04-19T11:26:38.999Z,102745.63
2019-04-19T11:29:07.987Z,102746.23
2019-04-19T11:31:37.930Z,102743.58
2019-04-19T11:34:06.949Z,102742.77
2019-04-19T11:36:35.639Z,102739.21
2019-04-19T11:39:07.314Z,102739.01
2019-04-19T11:41:36.839Z,102739.34
2019-04-19T11:44:13.896Z,102735.61
2019-04-19T11:46:36.055Z,102738.97
2019-04-19T11:49:05.806Z,102741.51
2019-04-19T11:51:34.412Z,102745.86
2019-04-19T11:54:02.860Z,102746.05
2019-04-19T11:56:37.822Z,102736.68
2019-04-19T11:59:14.360Z,102740.54
2019-04-19T12:01:46.003Z,102730.54
2019-04-19T12:04:14.496Z,102728.83
2019-04-19T12:06:42.934Z,102740.77
2019-04-19T12:09:14.030Z,102734.44
2019-04-19T12:11:42.710Z,102734.72
2019-04-19T12:14:12.286Z,102733.73
2019-04-19T12:16:41.298Z,102737.77
2019-04-19T12:19:11.992Z,102737.76
2019-04-19T12:21:41.285Z,102724.30
2019-04-19T12:24:10.862Z,102720.46
2019-04-19T12:26:39.842Z,102724.76
2019-04-19T12:29:09.277Z,102725.16
2019-04-19T12:31:37.657Z,102730.31
2019-04-19T12:34:09.203Z,102724.27
2019-04-19T12:36:37.120Z,102726.80
2019-04-19T12:39:09.314Z,102722.73
2019-04-19T12:41:39.795Z,102716.83
2019-04-19T12:44:09.044Z,102714.83
2019-04-19T12:46:37.591Z,102721.64
2019-04-19T12:49:06.755Z,102723.86
2019-04-19T12:51:36.475Z,102721.28
2019-04-19T12:54:05.846Z,102718.06
2019-04-19T12:56:34.251Z,102719.06
2019-04-19T12:59:02.534Z,102719.77
2019-04-19T13:01:32.535Z,102725.00
2019-04-19T13:04:02.577Z,102721.41
2019-04-19T13:06:35.743Z,102706.19
2019-04-19T13:09:05.657Z,102699.88
2019-04-19T13:11:36.736Z,102702.17
2019-04-19T13:14:05.867Z,102701.37
2019-04-19T13:16:34.705Z,102701.06
2019-04-19T13:19:03.743Z,102695.55
2019-04-19T13:21:32.446Z,102695.17
2019-04-19T13:24:00.770Z,102690.97
2019-04-19T13:26:29.378Z,102702.40
2019-04-19T13:28:57.808Z,102696.48
2019-04-19T13:31:27.119Z,102696.92
2019-04-19T13:33:55.733Z,102691.73
2019-04-19T13:36:26.869Z,102684.37
2019-04-19T13:39:13.297Z,102690.69
2019-04-19T13:41:48.470Z,102685.77
2019-04-19T13:44:16.973Z,102680.80
2019-04-19T13:46:46.690Z,102689.41
2019-04-19T13:49:16.735Z,102681.03
2019-04-19T13:51:45.208Z,102681.95
2019-04-19T13:54:14.672Z,102680.64
2019-04-19T13:56:43.171Z,102685.52
2019-04-19T13:59:12.512Z,102679.58
2019-04-19T14:01:42.756Z,102687.86
2019-04-19T14:04:11.462Z,102679.28
2019-04-19T14:06:40.290Z,102677.10
2019-04-19T14:09:11.445Z,102680.48
2019-04-19T14:11:39.921Z,102682.12
2019-04-19T14:14:08.230Z,102668.48
2019-04-19T14:16:37.698Z,102675.50
2019-04-19T14:19:07.219Z,102680.91
2019-04-19T14:21:37.086Z,102677.72
2019-04-19T14:24:05.605Z,102677.23
2019-04-19T14:26:39.744Z,102677.91
2019-04-19T14:29:05.346Z,102666.72
2019-04-19T14:31:34.490Z,102667.54
2019-04-19T14:34:03.451Z,102663.17
2019-04-19T14:36:31.849Z,102659.41
2019-04-19T14:39:00.461Z,102661.70
2019-04-19T14:41:29.577Z,102661.34
2019-04-19T14:43:59.482Z,102667.30
2019-04-19T14:46:28.931Z,102664.07
2019-04-19T14:48:58.544Z,102660.03
2019-04-19T14:51:30.077Z,102666.04
2019-04-19T14:53:58.191Z,102665.78
2019-04-19T14:56:28.160Z,102660.80
2019-04-19T14:58:56.596Z,102656.00
2019-04-19T15:01:26.809Z,102656.84
2019-04-19T15:03:59.578Z,102663.50
2019-04-19T15:06:29.029Z,102651.96
2019-04-19T15:08:57.541Z,102653.10
2019-04-19T15:11:25.846Z,102652.36
2019-04-19T15:13:55.756Z,102649.84
2019-04-19T15:16:24.771Z,102653.28
2019-04-19T15:18:53.142Z,102653.45
2019-04-19T15:21:23.881Z,102641.49
2019-04-19T15:23:52.497Z,102642.84
2019-04-19T15:26:20.903Z,102654.33
2019-04-19T15:28:49.250Z,102645.12
2019-04-19T15:31:18.398Z,102641.72
2019-04-19T15:33:48.235Z,102644.52
2019-04-19T15:36:19.701Z,102642.52
2019-04-19T15:38:48.144Z,102641.65
2019-04-19T15:41:16.473Z,102641.30
2019-04-19T15:43:46.459Z,102643.09
2019-04-19T15:46:15.661Z,102643.55
2019-04-19T15:48:50.049Z,102637.17
2019-04-19T15:51:21.984Z,102637.78
2019-04-19T15:53:44.585Z,102638.27
2019-04-19T15:56:14.438Z,102635.10
2019-04-19T15:58:43.061Z,102630.27
2019-04-19T16:01:14.393Z,102633.27
2019-04-19T16:03:47.891Z,102629.16
2019-04-19T16:06:20.933Z,102630.91
2019-04-19T16:09:07.066Z,102632.07
2019-04-19T16:11:44.584Z,102637.27
2019-04-19T16:14:14.082Z,102632.25
2019-04-19T16:16:43.144Z,102639.01
2019-04-19T16:19:12.271Z,102633.40
2019-04-19T16:21:46.221Z,102635.91
2019-04-19T16:24:11.353Z,102633.11
2019-04-19T16:26:41.280Z,102632.84
2019-04-19T16:29:22.245Z,102637.02
2019-04-19T16:31:40.414Z,102639.28
2019-04-19T16:34:10.277Z,102634.80
2019-04-19T16:36:39.539Z,102637.38
2019-04-19T16:39:09.276Z,102646.25
2019-04-19T16:41:37.794Z,102635.95
2019-04-19T16:44:07.315Z,102631.41
2019-04-19T16:46:37.082Z,102637.66
2019-04-19T16:49:06.598Z,102639.18
2019-04-19T16:51:45.329Z,102625.80
2019-04-19T16:54:05.931Z,102632.14
2019-04-19T16:56:35.496Z,102635.56
2019-04-19T16:59:05.152Z,102638.84
2019-04-19T17:01:34.889Z,102630.65
2019-04-19T17:04:03.787Z,102635.31
2019-04-19T17:06:32.869Z,102633.60
2019-04-19T17:09:02.320Z,102630.41
2019-04-19T17:11:32.615Z,102637.83
2019-04-19T17:14:00.870Z,102630.61
2019-04-19T17:16:46.787Z,102641.73
2019-04-19T17:19:35.279Z,102640.84
2019-04-19T17:22:11.838Z,102640.58
2019-04-19T17:24:34.755Z,102633.91
2019-04-19T17:27:03.251Z,102636.57
2019-04-19T17:29:33.105Z,102638.55
2019-04-19T17:32:02.492Z,102639.92
2019-04-19T17:34:32.012Z,102639.51
2019-04-19T17:37:00.422Z,102645.27
2019-04-19T17:39:28.923Z,102639.31
2019-04-19T17:41:57.154Z,102637.16
2019-04-19T17:44:25.863Z,102644.11
2019-04-19T17:46:54.524Z,102641.59
2019-04-19T17:49:24.669Z,102642.42
2019-04-19T17:52:01.850Z,102646.03
2019-04-19T17:54:45.685Z,102648.48
2019-04-19T17:56:53.389Z,102649.76
2019-04-19T17:59:22.895Z,102653.24
2019-04-19T18:01:52.974Z,102650.23
2019-04-19T18:04:22.005Z,102652.56
2019-04-19T18:06:56.392Z,102656.16
2019-04-19T18:09:22.868Z,102656.26
2019-04-19T18:11:51.460Z,102657.55
2019-04-19T18:14:19.919Z,102664.23
2019-04-19T18:16:48.487Z,102664.70
2019-04-19T18:19:25.108Z,102667.10
2019-04-19T18:21:48.154Z,102669.75
2019-04-19T18:24:21.308Z,102670.11
2019-04-19T18:26:46.748Z,102670.45
2019-04-19T18:29:20.386Z,102673.22
2019-04-19T18:31:50.981Z,102675.98
2019-04-19T18:34:20.874Z,102677.25
2019-04-19T18:36:54.274Z,102677.90
2019-04-19T18:39:20.161Z,102673.84
2019-04-19T18:41:49.622Z,102680.49
2019-04-19T18:44:25.850Z,102683.50
2019-04-19T18:46:49.436Z,102691.31
2019-04-19T18:49:17.913Z,102689.00
2019-04-19T18:51:49.573Z,102687.04
2019-04-19T18:54:22.889Z,102689.64
2019-04-19T18:56:48.782Z,102689.36
2019-04-19T18:59:21.957Z,102691.36
2019-04-19T19:01:48.053Z,102689.58
2019-04-19T19:04:22.850Z,102695.52
2019-04-19T19:06:48.857Z,102693.27
2019-04-19T19:09:19.215Z,102690.11
2019-04-19T19:11:56.745Z,102693.50
2019-04-19T19:14:21.082Z,102690.97
2019-04-19T19:16:51.278Z,102693.28
2019-04-19T19:19:24.302Z,102699.56
2019-04-19T19:21:50.394Z,102695.70
2019-04-19T19:24:39.111Z,102698.98
2019-04-19T19:27:02.460Z,102699.84
2019-04-19T19:29:18.540Z,102703.63
2019-04-19T19:31:47.176Z,102703.09
2019-04-19T19:34:20.668Z,102702.31
2019-04-19T19:36:49.247Z,102706.71
2019-04-19T19:39:24.125Z,102709.56
2019-04-19T19:44:31.035Z,102711.11
2019-04-19T19:47:20.567Z,102706.77
2019-04-19T19:50:07.445Z,102709.27
2019-04-19T19:52:09.178Z,102706.29
2019-04-19T19:54:48.558Z,102707.91
2019-04-19T19:57:11.482Z,102710.56
2019-04-19T19:59:31.270Z,102714.06
2019-04-19T20:02:07.434Z,102714.80
2019-04-19T20:04:24.036Z,102716.73
2019-04-19T20:07:00.162Z,102713.41
2019-04-19T20:09:27.457Z,102716.75
2019-04-19T20:11:57.184Z,102716.98
2019-04-19T20:14:26.113Z,102719.08
2019-04-19T20:16:54.766Z,102714.37
2019-04-19T20:19:24.232Z,102722.52
2019-04-19T20:22:01.706Z,102723.49
2019-04-19T20:24:40.953Z,102721.67
2019-04-19T20:27:05.035Z,102727.14
2019-04-19T20:29:28.707Z,102730.92
2019-04-19T20:31:54.533Z,102729.75
2019-04-19T20:34:29.978Z,102733.54
2019-04-19T20:36:53.491Z,102733.77
2019-04-19T20:39:24.849Z,102739.08
2019-04-19T20:41:57.249Z,102738.41
2019-04-19T20:44:40.719Z,102741.61
2019-04-19T20:46:52.516Z,102738.19
2019-04-19T20:49:21.319Z,102741.82
2019-04-19T20:52:00.559Z,102739.19
2019-04-19T20:54:46.320Z,102731.14
2019-04-19T20:57:14.412Z,102734.06
2019-04-19T20:59:34.679Z,102732.31
2019-04-19T21:01:54.992Z,102735.86
2019-04-19T21:04:24.879Z,102729.04
2019-04-19T21:06:53.903Z,102733.88
2019-04-19T21:09:28.208Z,102734.35
2019-04-19T21:11:52.711Z,102732.34
2019-04-19T21:14:26.120Z,102731.06
2019-04-19T21:16:57.029Z,102735.81
2019-04-19T21:19:22.383Z,102740.16
2019-04-19T21:21:53.604Z,102743.61
2019-04-19T21:24:20.802Z,102742.64
2019-04-19T21:26:49.336Z,102740.02
2019-04-19T21:29:20.978Z,102743.20
2019-04-19T21:31:52.705Z,102742.17
2019-04-19T21:34:18.620Z,102741.70
2019-04-19T21:36:53.482Z,102738.51
2019-04-19T21:39:19.709Z,102743.86
2019-04-19T21:41:48.740Z,102741.59
2019-04-19T21:44:21.570Z,102740.65
2019-04-19T21:46:48.411Z,102745.41
2019-04-19T21:49:19.843Z,102752.29
2019-04-19T21:51:50.323Z,102746.59
2019-04-19T21:54:20.584Z,102744.27
2019-04-19T21:56:52.743Z,102739.78
2019-04-19T21:59:22.853Z,102743.42
2019-04-19T22:01:51.249Z,102748.10
2019-04-19T22:04:21.208Z,102750.58
2019-04-19T22:06:56.142Z,102746.24
2019-04-19T22:09:22.201Z,102751.78
2019-04-19T22:11:50.119Z,102755.16
2019-04-19T22:14:23.944Z,102757.97
2019-04-19T22:16:49.039Z,102753.36
2019-04-19T22:19:22.419Z,102762.50
2019-04-19T22:21:48.595Z,102758.73
2019-04-19T22:24:26.091Z,102757.69
2019-04-19T22:26:52.226Z,102751.22
2019-04-19T22:29:17.947Z,102752.17
2019-04-19T22:31:47.600Z,102750.84
2019-04-19T22:34:16.665Z,102750.06
2019-04-19T22:36:48.534Z,102747.36
2019-04-19T22:39:15.852Z,102753.42
2019-04-19T22:41:44.402Z,102749.09
2019-04-19T22:44:12.714Z,102748.81
2019-04-19T22:46:47.278Z,102742.61
2019-04-19T22:49:13.777Z,102736.39
2019-04-19T22:51:42.610Z,102739.45
2019-04-19T22:54:11.034Z,102740.31
2019-04-19T22:56:54.035Z,102739.80
2019-04-19T22:59:13.174Z,102740.91
2019-04-19T23:02:03.128Z,102737.37
2019-04-19T23:04:29.455Z,102743.42
2019-04-19T23:07:02.828Z,102739.41
2019-04-19T23:09:28.583Z,102747.63
2019-04-19T23:11:57.616Z,102747.38
2019-04-19T23:14:46.116Z,102744.66
2019-04-19T23:17:14.611Z,102754.79
2019-04-19T23:19:46.518Z,102756.20
2019-04-19T23:22:14.285Z,102751.56
2019-04-19T23:24:48.336Z,102755.41
2019-04-19T23:27:26.121Z,102751.66
2019-04-19T23:29:42.798Z,102755.83
2019-04-19T23:32:11.179Z,102751.78
2019-04-19T23:34:47.264Z,102759.73
2019-04-19T23:37:13.210Z,102748.33
2019-04-19T23:39:44.953Z,102752.73
2019-04-19T23:42:11.103Z,102756.02
2019-04-19T23:44:39.658Z,102762.58
2019-04-19T23:47:08.550Z,102763.75
2019-04-19T23:49:39.604Z,102756.99
2019-04-19T23:52:07.447Z,102755.13
2019-04-19T23:54:37.208Z,102754.88
2019-04-19T23:57:15.936Z,102756.82
2019-04-19T23:59:36.504Z,102760.66
